createdAt,value
2019-01-20T07:13:52.432Z,21.30
2019-01-20T07:16:21.731Z,20.90
2019-01-20T07:18:51.155Z,20.10
2019-01-20T07:21:20.332Z,18.55
2019-01-20T07:23:49.607Z,19.10
2019-01-20T07:26:18.769Z,19.73
2019-01-20T07:28:48.279Z,21.12
2019-01-20T07:31:17.532Z,19.87
2019-01-20T07:33:46.761Z,20.25
2019-01-20T07:36:16.021Z,20.77
2019-01-20T07:38:45.208Z,20.08
2019-01-20T07:41:14.662Z,21.23
2019-01-20T07:43:44.017Z,20.27
2019-01-20T07:46:13.179Z,20.65
2019-01-20T07:48:42.423Z,20.05
2019-01-20T07:51:11.749Z,19.98
2019-01-20T07:53:40.948Z,21.17
2019-01-20T07:56:10.144Z,19.95
2019-01-20T07:58:39.414Z,19.70
2019-01-20T08:01:08.695Z,21.15
2019-01-20T08:03:37.953Z,21.00
2019-01-20T08:06:07.114Z,21.12
2019-01-20T08:08:36.324Z,20.57
2019-01-20T08:11:05.934Z,19.62
2019-01-20T08:13:35.703Z,19.20
2019-01-20T08:16:05.588Z,17.85
2019-01-20T08:18:34.915Z,17.50
2019-01-20T08:21:04.158Z,17.30
2019-01-20T08:23:33.389Z,16.80
2019-01-20T08:26:02.762Z,16.77
2019-01-20T08:28:32.134Z,16.87
2019-01-20T08:31:01.467Z,16.47
2019-01-20T08:33:30.770Z,15.37
2019-01-20T08:36:00.081Z,16.23
2019-01-20T08:38:29.314Z,15.97
2019-01-20T08:40:58.642Z,16.07
2019-01-20T08:43:31.954Z,15.50
2019-01-20T08:46:21.405Z,14.57
2019-01-20T08:48:50.577Z,15.50
2019-01-20T08:51:19.796Z,15.60
2019-01-20T08:53:49.056Z,15.33
2019-01-20T08:56:18.293Z,15.40
2019-01-20T08:58:47.470Z,16.03
2019-01-20T09:01:16.922Z,15.30
2019-01-20T09:03:46.514Z,15.97
2019-01-20T09:06:15.701Z,16.97
2019-01-20T09:08:44.959Z,17.03
2019-01-20T09:11:14.168Z,17.70
2019-01-20T09:13:43.615Z,17.50
2019-01-20T09:16:12.779Z,17.87
2019-01-20T09:18:42.024Z,18.00
2019-01-20T09:21:11.646Z,17.23
2019-01-20T09:23:40.910Z,18.13
2019-01-20T09:26:10.162Z,17.17
2019-01-20T09:28:39.380Z,19.47
2019-01-20T09:31:08.632Z,18.30
2019-01-20T09:33:37.823Z,18.57
2019-01-20T09:36:07.187Z,19.03
2019-01-20T09:38:36.438Z,17.60
2019-01-20T09:41:05.731Z,18.37
2019-01-20T09:43:35.046Z,17.50
2019-01-20T09:46:04.807Z,16.27
2019-01-20T09:48:34.054Z,16.43
2019-01-20T09:51:03.367Z,17.00
2019-01-20T09:53:32.570Z,16.43
2019-01-20T09:56:01.759Z,16.27
2019-01-20T09:58:31.023Z,16.23
2019-01-20T10:01:00.295Z,16.13
2019-01-20T10:03:29.525Z,16.83
2019-01-20T10:05:58.766Z,16.37
2019-01-20T10:08:27.967Z,16.80
2019-01-20T10:10:57.266Z,16.63
2019-01-20T10:13:26.628Z,17.23
2019-01-20T10:15:58.685Z,17.03
2019-01-20T10:18:27.959Z,15.90
2019-01-20T10:20:57.260Z,16.10
2019-01-20T10:23:26.459Z,18.23
2019-01-20T10:25:55.635Z,17.17
2019-01-20T10:28:27.956Z,17.40
2019-01-20T10:30:57.283Z,18.10
2019-01-20T10:33:26.636Z,17.23
2019-01-20T10:36:01.139Z,17.57
2019-01-20T10:38:30.491Z,17.63
2019-01-20T10:41:00.020Z,16.97
2019-01-20T10:43:29.452Z,16.30
2019-01-20T10:45:58.856Z,17.17
2019-01-20T10:48:28.212Z,16.63
2019-01-20T10:50:57.886Z,16.47
2019-01-20T10:53:27.108Z,16.50
2019-01-20T10:55:56.323Z,15.70
2019-01-20T10:58:25.640Z,16.67
2019-01-20T11:00:54.946Z,16.60
2019-01-20T11:03:24.355Z,15.53
2019-01-20T11:05:53.895Z,16.07
2019-01-20T11:08:23.178Z,16.97
2019-01-20T11:10:52.401Z,16.53
2019-01-20T11:13:21.811Z,15.73
2019-01-20T11:15:51.169Z,16.20
2019-01-20T11:18:20.465Z,16.13
2019-01-20T11:20:50.065Z,16.23
2019-01-20T11:23:21.148Z,16.77
2019-01-20T11:25:50.459Z,16.20
2019-01-20T11:28:19.823Z,15.90
2019-01-20T11:30:49.113Z,16.67
2019-01-20T11:33:18.422Z,18.03
2019-01-20T11:35:47.718Z,17.80
2019-01-20T11:38:16.929Z,19.07
2019-01-20T11:40:46.211Z,19.77
2019-01-20T11:43:15.622Z,19.83
2019-01-20T11:45:44.831Z,18.30
2019-01-20T11:48:14.390Z,19.87
2019-01-20T11:50:44.089Z,21.10
2019-01-20T11:53:13.410Z,21.17
2019-01-20T11:55:42.775Z,20.70
2019-01-20T11:58:12.122Z,21.07
2019-01-20T12:00:41.501Z,21.13
2019-01-20T12:03:10.770Z,20.33
2019-01-20T12:05:42.517Z,21.17
2019-01-20T12:08:11.858Z,19.27
2019-01-20T12:10:41.082Z,19.97
2019-01-20T12:13:13.563Z,19.77
2019-01-20T12:15:42.961Z,19.87
2019-01-20T12:18:12.234Z,20.23
2019-01-20T12:20:41.562Z,20.73
2019-01-20T12:23:10.854Z,21.33
2019-01-20T12:25:40.165Z,21.37
2019-01-20T12:28:09.436Z,21.80
2019-01-20T12:30:40.265Z,21.60
2019-01-20T12:33:10.298Z,23.03
2019-01-20T12:35:39.584Z,22.77
2019-01-20T12:38:08.852Z,23.37
2019-01-20T12:40:44.415Z,22.67
2019-01-20T12:43:14.091Z,23.10
2019-01-20T12:45:43.301Z,22.87
2019-01-20T12:48:12.600Z,24.13
2019-01-20T12:50:41.788Z,24.27
2019-01-20T12:53:10.993Z,24.20
2019-01-20T12:55:40.220Z,23.87
2019-01-20T12:58:09.746Z,23.83
2019-01-20T13:00:39.032Z,24.33
2019-01-20T13:03:08.197Z,25.73
2019-01-20T13:05:37.414Z,24.07
2019-01-20T13:08:06.639Z,24.73
2019-01-20T13:10:36.029Z,25.80
2019-01-20T13:13:05.634Z,27.00
2019-01-20T13:15:35.437Z,23.87
2019-01-20T13:18:04.960Z,23.87
2019-01-20T13:20:34.169Z,24.90
2019-01-20T13:23:03.455Z,24.47
2019-01-20T13:25:32.814Z,23.83
2019-01-20T13:28:02.173Z,23.60
2019-01-20T13:30:31.870Z,23.30
2019-01-20T13:33:01.179Z,24.30
2019-01-20T13:35:30.770Z,23.07
2019-01-20T13:38:06.222Z,23.57
2019-01-20T13:41:09.110Z,22.80
2019-01-20T13:43:38.496Z,22.90
2019-01-20T13:46:07.705Z,22.47
2019-01-20T13:48:37.029Z,22.77
2019-01-20T13:51:06.295Z,22.63
2019-01-20T13:53:35.629Z,22.83
2019-01-20T13:56:05.368Z,23.50
2019-01-20T13:58:34.679Z,24.17
2019-01-20T14:01:04.858Z,24.30
2019-01-20T15:31:19.081Z,33.50
2019-01-20T15:33:48.303Z,31.17
2019-01-20T15:36:17.512Z,30.67
2019-01-20T15:38:46.748Z,31.40
2019-01-20T15:41:15.978Z,30.93
2019-01-20T15:43:45.258Z,31.63
2019-01-20T15:46:14.547Z,32.33
2019-01-20T15:48:43.914Z,34.37
2019-01-20T15:51:13.274Z,32.17
2019-01-20T15:53:42.571Z,32.00
2019-01-20T15:56:11.879Z,33.13
2019-01-20T15:58:41.163Z,31.80
2019-01-20T16:01:10.359Z,31.23
2019-01-20T16:03:39.711Z,33.73
2019-01-20T16:06:09.227Z,32.90
2019-01-20T16:08:38.563Z,33.73
2019-01-20T16:11:08.684Z,33.63
2019-01-20T16:13:37.947Z,33.93
2019-01-20T16:16:07.379Z,34.63
2019-01-20T16:18:36.767Z,34.67
2019-01-20T16:21:06.158Z,34.63
2019-01-20T16:23:35.474Z,34.20
2019-01-20T16:26:04.751Z,34.47
2019-01-20T16:28:34.119Z,34.73
2019-01-20T16:31:03.770Z,34.97
2019-01-20T16:33:33.112Z,39.10
2019-01-20T16:36:02.430Z,41.17
2019-01-20T16:38:31.703Z,39.37
2019-01-20T16:41:01.311Z,38.13
2019-01-20T16:43:30.503Z,37.27
2019-01-20T16:45:59.820Z,50.50
2019-01-20T16:48:29.187Z,41.57
2019-01-20T16:50:58.473Z,39.77
2019-01-20T16:53:27.731Z,44.90
2019-01-20T16:55:56.919Z,42.60
2019-01-20T16:58:26.192Z,37.33
2019-01-20T17:00:55.405Z,40.50
2019-01-20T17:03:24.612Z,38.93
2019-01-20T17:05:54.059Z,37.17
2019-01-20T17:08:23.411Z,38.17
2019-01-20T17:10:52.758Z,36.33
2019-01-20T17:13:21.945Z,37.60
2019-01-20T17:15:51.182Z,37.60
2019-01-20T17:18:20.472Z,38.43
2019-01-20T17:20:49.704Z,37.10
2019-01-20T17:23:19.048Z,37.13
2019-01-20T17:25:48.342Z,37.97
2019-01-20T17:28:17.708Z,38.87
2019-01-20T17:30:47.018Z,39.23
2019-01-20T17:33:16.984Z,35.73
2019-01-20T17:35:46.354Z,37.73
2019-01-20T17:38:15.694Z,38.70
2019-01-20T17:40:45.095Z,37.90
2019-01-20T17:43:14.302Z,37.37
2019-01-20T17:45:48.694Z,37.30
2019-01-20T17:48:16.633Z,38.33
2019-01-20T17:50:46.539Z,40.20
2019-01-20T17:53:15.981Z,40.67
2019-01-20T17:55:45.434Z,40.63
2019-01-20T17:58:14.808Z,35.97
2019-01-20T18:00:53.757Z,37.10
2019-01-20T18:03:23.651Z,38.13
2019-01-20T18:05:53.093Z,37.30
2019-01-20T18:08:22.343Z,37.50
2019-01-20T18:10:51.693Z,37.90
2019-01-20T18:13:21.742Z,37.57
2019-01-20T18:15:54.594Z,36.93
2019-01-20T18:18:22.512Z,37.23
2019-01-20T18:20:51.734Z,35.90
2019-01-20T18:23:20.971Z,35.10
2019-01-20T18:25:50.388Z,37.80
2019-01-20T18:28:19.867Z,37.43
2019-01-20T18:30:49.264Z,37.07
2019-01-20T18:33:18.607Z,37.40
2019-01-20T18:35:48.580Z,35.30
2019-01-20T18:38:17.817Z,35.77
2019-01-20T18:40:47.024Z,36.17
2019-01-20T18:43:16.327Z,37.07
2019-01-20T18:45:46.210Z,37.30
2019-01-20T18:48:15.552Z,37.63
2019-01-20T18:50:44.851Z,37.70
2019-01-20T18:53:14.570Z,38.43
2019-01-20T18:55:44.996Z,36.57
2019-01-20T18:58:14.383Z,36.93
2019-01-20T19:00:50.707Z,36.53
2019-01-20T19:03:20.015Z,36.03
2019-01-20T19:05:49.473Z,34.27
2019-01-20T19:08:18.827Z,34.53
2019-01-20T19:10:48.574Z,35.27
2019-01-20T19:13:17.863Z,35.47
2019-01-20T19:15:47.192Z,35.23
2019-01-20T19:18:19.165Z,37.40
2019-01-20T19:20:49.306Z,37.80
2019-01-20T19:23:18.630Z,36.40
2019-01-20T19:25:48.036Z,38.33
2019-01-20T19:28:17.262Z,38.00
2019-01-20T19:30:46.620Z,36.43
2019-01-20T19:33:15.950Z,37.23
2019-01-20T19:35:45.316Z,37.93
2019-01-20T19:38:14.564Z,37.83
2019-01-20T19:40:44.926Z,37.17
2019-01-20T19:43:14.262Z,37.50
2019-01-20T19:45:43.563Z,37.47
2019-01-20T19:48:19.879Z,37.83
2019-01-20T19:50:44.007Z,37.53
2019-01-20T19:53:13.274Z,38.03
2019-01-20T19:55:42.507Z,38.97
2019-01-20T19:58:11.863Z,38.43
2019-01-20T20:00:41.177Z,40.03
2019-01-20T20:03:10.423Z,36.47
2019-01-20T20:05:39.711Z,38.10
2019-01-20T20:08:09.424Z,37.20
2019-01-20T20:10:38.671Z,38.53
2019-01-20T20:13:08.037Z,38.87
2019-01-20T20:15:37.587Z,36.43
2019-01-20T20:18:07.558Z,36.53
2019-01-20T20:20:36.870Z,38.60
2019-01-20T20:23:06.457Z,37.97
2019-01-20T20:25:36.267Z,37.63
2019-01-20T20:28:05.720Z,38.23
2019-01-20T20:30:39.239Z,39.07
2019-01-20T20:33:09.174Z,38.00
2019-01-20T20:35:38.614Z,37.03
2019-01-20T20:38:07.867Z,37.03
2019-01-20T20:40:37.162Z,37.43
2019-01-20T20:43:06.407Z,37.67
2019-01-20T20:45:35.819Z,36.07
2019-01-20T20:48:06.170Z,35.37
2019-01-20T20:50:35.554Z,36.33
2019-01-20T20:53:05.108Z,36.40
2019-01-20T20:55:34.435Z,36.37
2019-01-20T20:58:03.920Z,37.30
2019-01-20T21:00:36.882Z,36.27
2019-01-20T21:03:10.227Z,35.73
2019-01-20T21:05:39.638Z,36.73
2019-01-20T21:08:09.304Z,33.97
2019-01-20T21:10:38.635Z,43.08
2019-01-20T21:13:09.185Z,38.03
2019-01-20T21:15:38.443Z,36.67
2019-01-20T21:18:07.720Z,36.33
2019-01-20T21:20:37.134Z,35.37
2019-01-20T21:23:12.489Z,37.40
2019-01-20T21:25:42.277Z,37.23
2019-01-20T21:28:11.611Z,36.37
2019-01-20T21:30:40.819Z,35.20
2019-01-20T21:33:10.112Z,37.20
2019-01-20T21:35:39.446Z,37.50
2019-01-20T21:38:11.538Z,36.30
2019-01-20T21:40:40.902Z,38.97
2019-01-20T21:43:10.132Z,37.23
2019-01-20T21:45:39.445Z,37.57
2019-01-20T21:48:08.643Z,37.47
2019-01-20T21:50:37.879Z,35.90
2019-01-20T21:53:07.093Z,36.57
2019-01-20T21:55:36.685Z,37.33
2019-01-20T21:58:05.910Z,37.83
2019-01-20T22:00:35.112Z,37.53
2019-01-20T22:03:04.500Z,38.17
2019-01-20T22:05:33.788Z,37.13
2019-01-20T22:08:03.022Z,35.93
2019-01-20T22:10:32.374Z,36.47
2019-01-20T22:13:01.849Z,36.40
2019-01-20T22:15:31.079Z,37.33
2019-01-20T22:18:00.396Z,35.20
2019-01-20T22:20:29.596Z,37.03
2019-01-20T22:23:04.075Z,37.00
2019-01-20T22:25:33.323Z,37.23
2019-01-20T22:28:02.661Z,38.07
2019-01-20T22:30:31.961Z,35.17
